Terminal Aerodrome Forecast
Issued by NWS

Home | Current Version | Previous Version | Text Only | Print | Product List | Glossary On
Versions: 1 2 3 4 5 6 7 8 9 10 11 12 13 14 15 16 17 18
000
FTUS46 KSGX 251236 AAA
TAFCRQ
TAF AMD
KCRQ 251236Z 2513/2612 VRB05KT P6SM SCT020
      TEMPO 2514/2518 VRB15KT 6SM -SHRA BKN020
     FM251800 26011G17KT P6SM SCT025 BKN035
     FM260200 18005KT P6SM BKN020=

USA.gov is the U.S. government's official web portal to all federal, state and local government web resources and services.